Map

Track Data

SID SEASON NUMBER BASIN SUBBASIN NAME ISO_TIME NATURE LAT LON WMO_WIND WMO_PRES WMO_AGENCY TRACK_TYPE DIST2LAND LANDFALL IFLAG USA_AGENCY USA_ATCF_ID USA_LAT USA_LON USA_RECORD USA_STATUS USA_WIND USA_PRES USA_SSHS USA_R34_NE USA_R34_SE USA_R34_SW USA_R34_NW USA_R50_NE USA_R50_SE USA_R50_SW USA_R50_NW USA_R64_NE USA_R64_SE USA_R64_SW USA_R64_NW USA_POCI USA_ROCI USA_RMW USA_EYE TOKYO_LAT TOKYO_LON TOKYO_GRADE TOKYO_WIND TOKYO_PRES TOKYO_R50_DIR TOKYO_R50_LONG TOKYO_R50_SHORT TOKYO_R30_DIR TOKYO_R30_LONG TOKYO_R30_SHORT TOKYO_LAND CMA_LAT CMA_LON CMA_CAT CMA_WIND CMA_PRES HKO_LAT HKO_LON HKO_CAT HKO_WIND HKO_PRES NEWDELHI_LAT NEWDELHI_LON NEWDELHI_GRADE NEWDELHI_WIND NEWDELHI_PRES NEWDELHI_CI NEWDELHI_DP NEWDELHI_POCI REUNION_LAT REUNION_LON REUNION_TYPE REUNION_WIND REUNION_PRES REUNION_TNUM REUNION_CI REUNION_RMW REUNION_R34_NE REUNION_R34_SE REUNION_R34_SW REUNION_R34_NW REUNION_R50_NE REUNION_R50_SE REUNION_R50_SW REUNION_R50_NW REUNION_R64_NE REUNION_R64_SE REUNION_R64_SW REUNION_R64_NW BOM_LAT BOM_LON BOM_TYPE BOM_WIND BOM_PRES BOM_TNUM BOM_CI BOM_RMW BOM_R34_NE BOM_R34_SE BOM_R34_SW BOM_R34_NW BOM_R50_NE BOM_R50_SE BOM_R50_SW BOM_R50_NW BOM_R64_NE BOM_R64_SE BOM_R64_SW BOM_R64_NW BOM_ROCI BOM_POCI BOM_EYE BOM_POS_METHOD BOM_PRES_METHOD NADI_LAT NADI_LON NADI_CAT NADI_WIND NADI_PRES WELLINGTON_LAT WELLINGTON_LON WELLINGTON_WIND WELLINGTON_PRES DS824_LAT DS824_LON DS824_STAGE DS824_WIND DS824_PRES TD9636_LAT TD9636_LON TD9636_STAGE TD9636_WIND TD9636_PRES TD9635_LAT TD9635_LON TD9635_WIND TD9635_PRES TD9635_ROCI NEUMANN_LAT NEUMANN_LON NEUMANN_CLASS NEUMANN_WIND NEUMANN_PRES MLC_LAT MLC_LON MLC_CLASS MLC_WIND MLC_PRES USA_GUST BOM_GUST BOM_GUST_PER REUNION_GUST REUNION_GUST_PER USA_SEAHGT USA_SEARAD_NE USA_SEARAD_SE USA_SEARAD_SW USA_SEARAD_NW STORM_SPEED STORM_DIR
1964263N19135 1964 85 WP MM NOT_NAMED 1964-09-18 18:00:00 TS 18.6000 135.100 main 1253 1223 __O___________ -1 18.6000 135.100 0 1006 8 293
1964263N19135 1964 85 WP MM NOT_NAMED 1964-09-18 21:00:00 TS 18.7627 134.690 main 1228 1194 __P___________ -1 18.7627 134.690 0 1005 8 292
1964263N19135 1964 85 WP MM NOT_NAMED 1964-09-19 00:00:00 TS 18.9000 134.300 main 1194 1171 __O___________ -1 18.9000 134.300 0 1005 7 289
1964263N19135 1964 85 WP MM NOT_NAMED 1964-09-19 03:00:00 TS 18.9999 133.942 main 1162 1140 __P___________ -1 18.9999 133.942 0 1005 7 287
1964263N19135 1964 85 WP MM NOT_NAMED 1964-09-19 06:00:00 TS 19.1000 133.600 main 1140 1118 __O___________ -1 19.1000 133.600 0 1005 7 292
1964263N19135 1964 85 WP MM NOT_NAMED 1964-09-19 09:00:00 TS 19.2649 133.258 main 1124 1094 __P___________ -1 19.2649 133.258 0 1005 7 294
1964263N19135 1964 85 WP MM NOT_NAMED 1964-09-19 12:00:00 TS 19.4000 132.900 main 1094 1059 __O___________ -1 19.4000 132.900 0 1005 7 283
1964263N19135 1964 85 WP MM NOT_NAMED 1964-09-19 15:00:00 TS 19.4300 132.492 main 1059 1025 __P___________ -1 19.4300 132.492 0 1005 8 270
1964263N19135 1964 85 WP MM NOT_NAMED 1964-09-19 18:00:00 TS 19.4000 132.100 main 1025 1000 __O___________ -1 19.4000 132.100 0 1005 7 264
1964263N19135 1964 85 WP MM NOT_NAMED 1964-09-19 21:00:00 TS 19.3574 131.770 main 1000 968 __P___________ -1 19.3574 131.770 0 1005 6 260
1964263N19135 1964 85 WP MM NOT_NAMED 1964-09-20 00:00:00 TS 19.3000 131.500 main 968 951 __O___________ -1 19.3000 131.500 0 1005 5 257
1964263N19135 1964 85 WP MM NOT_NAMED 1964-09-20 03:00:00 TS 19.2499 131.278 main 944 928 __P___________ -1 19.2499 131.278 0 1003 4 255
1964263N19135 1964 85 WP MM NOT_NAMED 1964-09-20 06:00:00 TS 19.2000 131.100 main 928 920 __O___________ -1 19.2000 131.100 0 1002 3 253
1964263N19135 1964 85 WP MM NOT_NAMED 1964-09-20 09:00:00 TS 19.1574 130.950 main 920 896 __P___________ -1 19.1574 130.950 0 1002 3 250
1964263N19135 1964 85 WP MM NOT_NAMED 1964-09-20 12:00:00 TS 19.1000 130.800 main 896 873 __O___________ -1 19.1000 130.800 1 23 1002 4 245
1964263N19135 1964 85 WP MM NOT_NAMED 1964-09-20 15:00:00 TS 19.0075 130.615 main 873 850 __P___________ -1 19.0075 130.615 1 23 1002 4 242
1964263N19135 1964 85 WP MM NOT_NAMED 1964-09-20 18:00:00 TS 18.9000 130.400 main 850 826 __O___________ -1 18.9000 130.400 1 23 1002 5 246
1964263N19135 1964 85 WP MM NOT_NAMED 1964-09-20 21:00:00 TS 18.8075 130.150 main 826 795 __P___________ -1 18.8075 130.150 1 23 1002 5 247
1964263N19135 1964 85 WP MM NOT_NAMED 1964-09-21 00:00:00 TS 18.7000 129.900 main 795 772 __O___________ -1 18.7000 129.900 1 23 1002 5 240
1964263N19135 1964 85 WP MM NOT_NAMED 1964-09-21 03:00:00 TS 18.5575 129.693 main 772 741 __P___________ -1 18.5575 129.693 1 26 1000 5 232
1964263N19135 1964 85 WP MM NOT_NAMED 1964-09-21 06:00:00 TS 18.4000 129.500 main 741 718 __O___________ -1 18.4000 129.500 1 29 998 5 232
1964263N19135 1964 85 WP MM NOT_NAMED 1964-09-21 09:00:00 TS 18.2500 129.285 main 718 688 __P___________ -1 18.2500 129.285 1 29 998 5 232
1964263N19135 1964 85 WP MM NOT_NAMED 1964-09-21 12:00:00 TS 18.1000 129.100 main 688 672 __O___________ -1 18.1000 129.100 1 29 998 4 223
1964263N19135 1964 85 WP MM NOT_NAMED 1964-09-21 15:00:00 TS 17.9499 128.993 main 665 649 __P___________ -1 17.9499 128.993 1 29 998 4 212
1964263N19135 1964 85 WP MM NOT_NAMED 1964-09-21 18:00:00 TS 17.8000 128.900 main 649 634 __O___________ -1 17.8000 128.900 1 29 998 4 218
1964263N19135 1964 85 WP MM NOT_NAMED 1964-09-21 21:00:00 TS 17.6575 128.758 main 634 603 __P___________ -1 17.6575 128.758 1 26 999 4 223
1964263N19135 1964 85 WP MM NOT_NAMED 1964-09-22 00:00:00 TS 17.5000 128.600 main 603 581 __O___________ -1 17.5000 128.600 1 23 1000 5 220
1964263N19135 1964 85 WP MM NOT_NAMED 1964-09-22 03:00:00 TS 17.3075 128.450 main 581 550 __P___________ -1 17.3075 128.450 1 23 1000 5 215
1964263N19135 1964 85 WP MM NOT_NAMED 1964-09-22 06:00:00 TS 17.1000 128.300 main 550 528 __O___________ -1 17.1000 128.300 1 23 1000 5 213
1964263N19135 1964 85 WP MM NOT_NAMED 1964-09-22 09:00:00 TS 16.8925 128.165 main 528 497 __P___________ -1 16.8925 128.165 1 23 1000 5 216
1964263N19135 1964 85 WP MM NOT_NAMED 1964-09-22 12:00:00 TS 16.7000 128.000 main 497 473 __O___________ -1 16.7000 128.000 1 23 1000 5 227
1964263N19135 1964 85 WP MM NOT_NAMED 1964-09-22 15:00:00 TS 16.5425 127.773 main 466 434 __P___________ -1 16.5425 127.773 1 23 1000 6 238
1964263N19135 1964 85 WP MM NOT_NAMED 1964-09-22 18:00:00 TS 16.4000 127.500 main 434 395 __O___________ -1 16.4000 127.500 1 23 1000 6 239
1964263N19135 1964 85 WP MM NOT_NAMED 1964-09-22 21:00:00 TS 16.2275 127.215 main 395 364 __P___________ -1 16.2275 127.215 1 23 1000 7 242
1964263N19135 1964 85 WP MM NOT_NAMED 1964-09-23 00:00:00 TS 16.1000 126.900 main 364 341 __O___________ -1 16.1000 126.900 1 23 1000 6 257
1964263N19135 1964 85 WP MM NOT_NAMED 1964-09-23 03:00:00 TS 16.0850 126.558 main 341 311 __P___________ -1 16.0850 126.558 1 1001 7 270
1964263N19135 1964 85 WP MM NOT_NAMED 1964-09-23 06:00:00 TS 16.1000 126.200 main 311 291 __O___________ -1 16.1000 126.200 0 1002 7 267
1964263N19135 1964 85 WP MM NOT_NAMED 1964-09-23 09:00:00 TS 16.0500 125.842 main 275 258 __P___________ -1 16.0500 125.842 0 1002 7 262
1964263N19135 1964 85 WP MM NOT_NAMED 1964-09-23 12:00:00 TS 16.0000 125.500 main 258 243 __O___________ -1 16.0000 125.500 0 1002 6 265
1964263N19135 1964 85 WP MM NOT_NAMED 1964-09-23 15:00:00 TS 15.9923 125.215 main 243 232 __P___________ -1 15.9923 125.215 0 1002 6 270
1964263N19135 1964 85 WP MM NOT_NAMED 1964-09-23 18:00:00 TS 16.0000 124.900 main 232 224 __O___________ -1 16.0000 124.900 0 1002 7 269
1964263N19135 1964 85 WP MM NOT_NAMED 1964-09-23 21:00:00 TS 15.9850 124.480 main 224 189 __P___________ -1 15.9850 124.480 0 1002 9 270
1964263N19135 1964 85 WP MM NOT_NAMED 1964-09-24 00:00:00 TS 16.0000 124.000 main 189 139 __O___________ -1 16.0000 124.000 0 1003 9 277
1964263N19135 1964 85 WP MM NOT_NAMED 1964-09-24 03:00:00 TS 16.0999 123.515 main 139 85 __P___________ -1 16.0999 123.515 0 1003 10 282
1964263N19135 1964 85 WP MM NOT_NAMED 1964-09-24 06:00:00 TS 16.2000 123.000 main 85 32 __O___________ -1 16.2000 123.000 0 1003 10 277
1964263N19135 1964 85 WP MM NOT_NAMED 1964-09-24 09:00:00 TS 16.2253 122.457 main 32 0 __P___________ -1 16.2253 122.457 0 1003 11 270
1964263N19135 1964 85 WP MM NOT_NAMED 1964-09-24 12:00:00 TS 16.2000 121.900 main 0 __O___________ -1 16.2000 121.900 0 1004 11 267

Digital Typhoon Data and Search

About IBTrACS Database

This database is a web-friendly format of International Best Track Archive for Climate Stewardship (IBTrACS), a global best track data archive curated by NOAA dating back to 1842.

Updated: 2021-12-03